createdAt,value
2022-11-09T00:01:05.545Z,74.43
2022-11-09T00:03:37.570Z,74.48
2022-11-09T00:06:11.992Z,74.57
2022-11-09T00:08:42.887Z,74.18
2022-11-09T00:11:15.056Z,74.31
2022-11-09T00:13:49.447Z,74.47
2022-11-09T00:16:23.899Z,75.09
2022-11-09T00:18:56.182Z,74.80
2022-11-09T00:21:28.309Z,74.62
2022-11-09T00:24:00.932Z,74.96
2022-11-09T00:26:32.934Z,75.14
2022-11-09T00:29:04.871Z,74.94
2022-11-09T00:31:37.306Z,74.62
2022-11-09T00:34:10.654Z,74.36
2022-11-09T00:36:43.124Z,74.24
2022-11-09T00:39:15.429Z,74.31
2022-11-09T00:41:47.664Z,74.37
2022-11-09T00:44:19.891Z,74.23
2022-11-09T00:46:52.001Z,74.43
2022-11-09T00:49:24.594Z,74.45
2022-11-09T00:51:57.401Z,74.42
2022-11-09T00:54:29.407Z,74.30
2022-11-09T00:57:01.462Z,74.53
2022-11-09T00:59:34.566Z,74.64
2022-11-09T01:02:06.760Z,74.61
2022-11-09T01:04:39.865Z,74.34
2022-11-09T01:07:12.173Z,74.36
2022-11-09T01:09:44.700Z,74.38
2022-11-09T01:12:16.832Z,74.01
2022-11-09T01:14:48.820Z,73.86
2022-11-09T01:17:21.281Z,73.79
2022-11-09T01:19:53.240Z,74.02
2022-11-09T01:22:27.750Z,73.80
2022-11-09T01:25:00.537Z,74.14
2022-11-09T01:27:33.517Z,73.76
2022-11-09T01:30:05.936Z,73.76
2022-11-09T01:32:38.030Z,73.58
2022-11-09T01:35:11.809Z,73.67
2022-11-09T01:37:43.838Z,73.45
2022-11-09T01:40:16.351Z,73.38
2022-11-09T01:42:48.993Z,73.72
2022-11-09T01:45:30.597Z,73.79
2022-11-09T01:48:07.513Z,73.94
2022-11-09T01:50:45.351Z,74.02
2022-11-09T01:53:21.127Z,73.97
2022-11-09T01:55:57.684Z,74.19
2022-11-09T01:58:33.888Z,74.08
2022-11-09T02:01:11.189Z,73.79
2022-11-09T02:03:48.098Z,73.72
2022-11-09T02:06:24.295Z,73.53
2022-11-09T02:09:00.899Z,73.53
2022-11-09T02:11:33.797Z,73.27
2022-11-09T02:14:07.156Z,73.44
2022-11-09T02:16:40.054Z,73.37
2022-11-09T02:19:12.583Z,73.36
2022-11-09T02:21:44.754Z,72.97
2022-11-09T02:24:16.949Z,73.03
2022-11-09T02:26:51.971Z,72.86
2022-11-09T02:29:29.857Z,72.75
2022-11-09T02:32:04.856Z,72.63
2022-11-09T02:34:36.868Z,72.44
2022-11-09T02:37:09.615Z,72.61
2022-11-09T02:39:42.442Z,72.96
2022-11-09T02:42:21.451Z,72.70
2022-11-09T02:44:59.123Z,72.92
2022-11-09T02:47:31.639Z,72.84
2022-11-09T02:50:03.696Z,72.73
2022-11-09T02:52:35.863Z,72.67
2022-11-09T02:55:09.084Z,72.81
2022-11-09T02:57:41.185Z,72.89
2022-11-09T03:00:15.182Z,72.94
2022-11-09T03:02:47.847Z,72.93
2022-11-09T03:05:20.610Z,73.00
2022-11-09T03:07:52.796Z,72.84
2022-11-09T03:10:24.962Z,72.77
2022-11-09T03:12:57.731Z,72.87
2022-11-09T03:15:29.948Z,72.33
2022-11-09T03:18:01.910Z,72.49
2022-11-09T03:20:34.332Z,72.52
2022-11-09T03:23:07.739Z,72.24
2022-11-09T03:25:40.027Z,72.37
2022-11-09T03:28:12.049Z,72.55
2022-11-09T03:30:44.947Z,72.69
2022-11-09T03:33:17.548Z,72.49
2022-11-09T03:35:51.443Z,72.67
2022-11-09T03:38:24.035Z,72.86
2022-11-09T03:40:57.462Z,73.00
2022-11-09T03:43:31.193Z,73.08
2022-11-09T03:46:03.371Z,73.18
2022-11-09T03:48:35.415Z,73.04
2022-11-09T03:51:07.615Z,72.74
2022-11-09T03:53:40.108Z,72.76
2022-11-09T03:56:12.895Z,72.80
2022-11-09T03:58:45.000Z,72.82
2022-11-09T04:01:17.152Z,72.90
2022-11-09T04:03:49.490Z,72.63
2022-11-09T04:06:21.550Z,72.84
2022-11-09T04:08:54.185Z,72.89
2022-11-09T04:11:26.462Z,72.87
2022-11-09T04:13:58.721Z,72.91
2022-11-09T04:16:31.161Z,72.49
2022-11-09T04:19:03.153Z,72.27
2022-11-09T04:21:35.216Z,72.33
2022-11-09T04:24:07.851Z,72.39
2022-11-09T04:26:40.354Z,72.33
2022-11-09T04:29:13.883Z,72.40
2022-11-09T04:31:46.067Z,72.52
2022-11-09T04:34:18.556Z,72.50
2022-11-09T04:36:50.937Z,72.58
2022-11-09T04:39:23.173Z,72.29
2022-11-09T04:41:55.191Z,72.27
2022-11-09T04:44:29.210Z,72.36
2022-11-09T04:47:01.732Z,72.33
2022-11-09T04:49:33.942Z,72.61
2022-11-09T04:52:07.068Z,72.29
2022-11-09T04:54:39.647Z,72.30
2022-11-09T04:57:12.207Z,72.19
2022-11-09T04:59:44.220Z,72.29
2022-11-09T05:02:16.796Z,72.30
2022-11-09T05:04:49.837Z,72.42
2022-11-09T05:07:21.857Z,72.07
2022-11-09T05:09:54.208Z,72.18
2022-11-09T05:12:27.680Z,72.19
2022-11-09T05:15:00.513Z,72.02
2022-11-09T05:17:32.679Z,72.11
2022-11-09T05:20:04.976Z,72.13
2022-11-09T05:22:57.727Z,72.07
2022-11-09T05:25:30.060Z,72.39
2022-11-09T05:28:02.092Z,72.46
2022-11-09T05:30:34.185Z,72.29
2022-11-09T05:33:06.376Z,72.08
2022-11-09T05:35:38.841Z,72.44
2022-11-09T05:38:11.494Z,72.67
2022-11-09T05:40:43.591Z,72.51
2022-11-09T05:43:15.764Z,72.33
2022-11-09T05:45:48.551Z,72.51
2022-11-09T05:48:21.752Z,72.66
2022-11-09T05:50:53.748Z,72.76
2022-11-09T05:53:28.394Z,73.32
2022-11-09T05:56:05.013Z,73.55
2022-11-09T05:58:38.895Z,73.29
2022-11-09T06:01:15.232Z,73.15
2022-11-09T06:03:48.887Z,73.01
2022-11-09T06:06:21.531Z,72.86
2022-11-09T06:08:53.670Z,73.12
2022-11-09T06:11:25.708Z,73.10
2022-11-09T06:13:57.826Z,73.20
2022-11-09T06:16:30.259Z,73.15
2022-11-09T06:19:03.710Z,73.10
2022-11-09T06:21:36.026Z,73.13
2022-11-09T06:24:09.546Z,73.19
2022-11-09T06:26:42.039Z,73.38
2022-11-09T06:29:15.061Z,73.63
2022-11-09T06:31:49.269Z,73.87
2022-11-09T06:34:21.732Z,73.67
2022-11-09T06:36:55.833Z,73.95
2022-11-09T06:39:29.943Z,74.12
2022-11-09T06:42:02.350Z,74.38
2022-11-09T06:44:34.692Z,75.56
2022-11-09T06:47:07.809Z,75.30
2022-11-09T06:49:41.998Z,74.96
2022-11-09T06:52:16.648Z,74.93
2022-11-09T06:54:49.564Z,75.06
2022-11-09T06:57:21.806Z,75.19
2022-11-09T06:59:53.943Z,75.05
2022-11-09T07:02:26.136Z,75.10
2022-11-09T07:04:58.506Z,75.52
2022-11-09T07:07:30.729Z,75.30
2022-11-09T07:10:02.815Z,76.28
2022-11-09T07:12:35.725Z,76.82
2022-11-09T07:15:09.235Z,76.74
2022-11-09T07:17:41.808Z,76.82
2022-11-09T07:20:15.293Z,77.44
2022-11-09T07:22:50.055Z,77.66
2022-11-09T07:25:22.681Z,77.01
2022-11-09T07:27:55.008Z,76.64
2022-11-09T07:30:27.724Z,76.77
2022-11-09T07:33:09.584Z,76.47
2022-11-09T07:35:42.589Z,76.73
2022-11-09T07:38:15.802Z,76.24
2022-11-09T07:40:48.450Z,76.02
2022-11-09T07:43:20.745Z,75.93
2022-11-09T07:45:56.436Z,76.08
2022-11-09T07:48:28.818Z,75.95
2022-11-09T07:51:03.626Z,75.82
2022-11-09T07:53:37.151Z,75.62
2022-11-09T07:56:10.301Z,75.49
2022-11-09T07:58:42.833Z,75.47
2022-11-09T08:01:15.130Z,75.14
2022-11-09T08:03:47.177Z,75.25
2022-11-09T08:06:19.255Z,75.34
2022-11-09T08:08:51.828Z,75.32
2022-11-09T08:11:24.653Z,74.93
2022-11-09T08:13:56.930Z,74.90
2022-11-09T08:16:34.874Z,74.81
2022-11-09T08:25:18.164Z,75.17
2022-11-09T08:27:51.045Z,75.26
2022-11-09T08:30:24.257Z,75.23
2022-11-09T08:32:56.734Z,75.36
2022-11-09T08:35:29.503Z,75.04
2022-11-09T08:38:04.579Z,75.15
2022-11-09T08:40:36.587Z,75.03
2022-11-09T08:43:09.854Z,74.57
2022-11-09T08:45:42.688Z,74.41
2022-11-09T08:48:15.392Z,74.60
2022-11-09T08:50:47.430Z,74.52
2022-11-09T08:53:19.620Z,74.42
2022-11-09T08:55:52.553Z,74.51
2022-11-09T08:58:25.077Z,74.54
2022-11-09T09:00:57.084Z,74.63
2022-11-09T09:03:29.361Z,74.29
2022-11-09T09:06:05.904Z,73.88
2022-11-09T09:08:38.380Z,73.91
2022-11-09T09:11:10.530Z,74.04
2022-11-09T09:13:43.689Z,74.55
2022-11-09T09:16:17.603Z,75.04
2022-11-09T09:18:51.627Z,75.63
2022-11-09T09:21:23.584Z,75.56
2022-11-09T09:23:56.769Z,75.60
2022-11-09T09:26:28.885Z,75.72
2022-11-09T09:29:01.404Z,74.91
2022-11-09T09:31:33.580Z,74.92
2022-11-09T09:34:05.841Z,75.34
2022-11-09T09:36:42.048Z,75.30
2022-11-09T09:39:17.264Z,75.31
2022-11-09T09:41:54.239Z,75.23
2022-11-09T09:44:33.010Z,74.44
2022-11-09T09:47:13.444Z,74.72
2022-11-09T09:49:48.885Z,74.57
2022-11-09T09:52:26.249Z,74.20
2022-11-09T09:55:04.624Z,74.02
2022-11-09T09:57:41.924Z,73.93
2022-11-09T10:00:23.186Z,73.71
2022-11-09T10:02:56.078Z,74.61
2022-11-09T10:05:38.750Z,74.79
2022-11-09T10:08:16.484Z,74.74
2022-11-09T10:10:57.068Z,74.33
2022-11-09T10:14:01.741Z,74.21
2022-11-09T10:16:42.226Z,74.32
2022-11-09T10:19:31.709Z,74.27
2022-11-09T10:22:10.230Z,74.00
2022-11-09T10:25:20.693Z,73.55
2022-11-09T10:27:50.676Z,73.10
2022-11-09T10:30:24.539Z,72.96
2022-11-09T10:32:59.253Z,73.11
2022-11-09T10:35:35.610Z,72.43
2022-11-09T10:38:10.428Z,72.03
2022-11-09T10:40:50.368Z,71.14
2022-11-09T10:43:40.796Z,71.06
2022-11-09T10:46:30.999Z,70.18
2022-11-09T10:49:23.767Z,69.90
2022-11-09T10:52:44.204Z,69.52
2022-11-09T10:55:37.466Z,68.76
2022-11-09T10:58:35.797Z,69.04
2022-11-09T11:01:37.032Z,69.57
2022-11-09T11:04:28.732Z,69.39
2022-11-09T11:07:22.991Z,69.62
2022-11-09T11:10:19.082Z,68.93
2022-11-09T11:13:29.559Z,69.33
2022-11-09T11:16:28.684Z,69.23
2022-11-09T11:19:37.570Z,69.50
2022-11-09T11:22:28.210Z,68.62
2022-11-09T11:25:22.703Z,69.18
2022-11-09T11:28:22.291Z,68.88
2022-11-09T11:31:16.163Z,68.75
2022-11-09T11:34:26.658Z,68.39
2022-11-09T11:37:37.901Z,68.10
2022-11-09T11:40:35.915Z,68.49
2022-11-09T11:43:37.374Z,67.85
2022-11-09T11:46:35.422Z,68.05
2022-11-09T11:49:44.305Z,68.20
2022-11-09T11:52:48.509Z,68.31
2022-11-09T11:55:58.008Z,68.17
2022-11-09T11:59:11.716Z,68.19
2022-11-09T12:02:20.195Z,68.27
2022-11-09T12:05:41.074Z,67.97
2022-11-09T12:08:42.666Z,67.42
2022-11-09T12:11:44.817Z,67.12
2022-11-09T12:14:50.574Z,66.87
2022-11-09T12:17:49.525Z,67.61
2022-11-09T12:20:49.360Z,66.98
2022-11-09T12:24:04.349Z,67.80
2022-11-09T12:27:31.138Z,67.81
2022-11-09T12:30:24.101Z,67.73
2022-11-09T12:33:23.442Z,68.25
2022-11-09T12:36:22.451Z,68.94
2022-11-09T12:39:21.615Z,68.91
2022-11-09T12:42:19.732Z,69.74
2022-11-09T12:45:23.960Z,69.34
2022-11-09T12:48:22.147Z,69.57
2022-11-09T12:51:12.966Z,69.82
2022-11-09T12:54:10.066Z,70.56
2022-11-09T12:57:04.038Z,71.00
2022-11-09T12:59:56.510Z,71.07
2022-11-09T13:02:56.038Z,71.33
2022-11-09T13:05:48.743Z,71.44
2022-11-09T13:08:40.638Z,71.75
2022-11-09T13:11:38.839Z,72.23
2022-11-09T13:14:42.126Z,72.78
2022-11-09T13:18:02.789Z,72.80
2022-11-09T13:20:56.534Z,72.70
2022-11-09T13:24:00.508Z,72.99
2022-11-09T13:27:01.032Z,72.83
2022-11-09T13:29:56.673Z,72.67
2022-11-09T13:33:20.788Z,73.29
2022-11-09T13:36:23.430Z,73.24
2022-11-09T13:39:39.146Z,73.08
2022-11-09T13:42:32.563Z,73.28
2022-11-09T13:45:33.486Z,73.57
2022-11-09T13:48:34.731Z,73.78
2022-11-09T13:51:40.028Z,74.10
2022-11-09T13:54:35.191Z,74.23
2022-11-09T13:57:27.139Z,74.33
2022-11-09T14:00:24.362Z,74.57
2022-11-09T14:03:24.289Z,74.62
2022-11-09T14:06:15.457Z,74.74
2022-11-09T14:09:06.919Z,74.60
2022-11-09T14:12:18.265Z,74.67
2022-11-09T14:15:19.570Z,74.20
2022-11-09T14:18:19.591Z,73.95
2022-11-09T14:21:25.828Z,74.13
2022-11-09T14:24:19.503Z,73.61
2022-11-09T14:27:19.620Z,73.57
2022-11-09T14:30:20.491Z,73.25
2022-11-09T14:33:25.101Z,73.48
2022-11-09T14:36:16.043Z,73.63
2022-11-09T14:39:15.867Z,73.11
2022-11-09T14:42:08.779Z,73.47
2022-11-09T14:44:59.374Z,73.64
2022-11-09T14:47:55.914Z,73.45
2022-11-09T14:50:47.207Z,73.24
2022-11-09T14:53:39.746Z,73.14
2022-11-09T14:56:33.987Z,73.21
2022-11-09T14:59:29.431Z,73.08
2022-11-09T15:02:22.122Z,73.40
2022-11-09T15:05:39.100Z,73.25
2022-11-09T15:08:30.221Z,73.05
2022-11-09T15:11:21.611Z,72.92
2022-11-09T15:14:29.307Z,72.78
2022-11-09T15:17:31.383Z,72.42
2022-11-09T15:20:35.015Z,72.37
2022-11-09T15:23:39.723Z,72.23
2022-11-09T15:26:37.754Z,72.27
2022-11-09T15:29:38.651Z,72.12
2022-11-09T15:32:33.886Z,71.64
2022-11-09T15:35:26.506Z,72.10
2022-11-09T15:41:18.187Z,72.01
2022-11-09T15:44:15.527Z,72.15
2022-11-09T15:47:22.308Z,72.27
2022-11-09T15:50:17.807Z,72.64
2022-11-09T15:53:09.943Z,72.78
2022-11-09T15:56:02.291Z,72.96
2022-11-09T15:58:53.804Z,73.01
2022-11-09T16:01:45.065Z,73.35
2022-11-09T16:04:36.157Z,73.66
2022-11-09T16:07:28.040Z,73.60
2022-11-09T16:10:23.860Z,73.74
2022-11-09T16:13:14.458Z,73.87
2022-11-09T16:16:08.880Z,74.19
2022-11-09T16:19:03.727Z,74.48
2022-11-09T16:21:56.866Z,74.30
2022-11-09T16:24:48.469Z,74.33
2022-11-09T16:27:50.674Z,74.38
2022-11-09T16:30:46.678Z,74.45
2022-11-09T16:33:39.215Z,74.56
2022-11-09T16:36:34.567Z,74.77
2022-11-09T16:39:34.042Z,74.90
2022-11-09T16:42:26.619Z,75.01
2022-11-09T16:45:20.277Z,74.97
2022-11-09T16:48:16.553Z,75.28
2022-11-09T16:51:09.129Z,75.72
2022-11-09T16:54:00.391Z,75.62
2022-11-09T16:56:53.646Z,75.60
2022-11-09T16:59:45.909Z,76.13
2022-11-09T17:02:40.136Z,76.20
2022-11-09T17:05:34.580Z,76.23
2022-11-09T17:08:25.092Z,76.10
2022-11-09T17:11:17.562Z,76.04
2022-11-09T17:14:09.398Z,75.63
2022-11-09T17:17:01.306Z,75.74
2022-11-09T17:19:52.653Z,75.57
2022-11-09T17:22:46.424Z,75.44
2022-11-09T17:25:39.822Z,75.60
2022-11-09T17:28:31.220Z,75.91
2022-11-09T17:31:26.626Z,76.24
2022-11-09T17:34:17.871Z,76.27
2022-11-09T17:37:09.450Z,76.96
2022-11-09T17:40:00.568Z,76.46
2022-11-09T17:42:52.498Z,76.45
2022-11-09T17:45:45.981Z,76.41
2022-11-09T17:48:38.284Z,76.53
2022-11-09T17:51:30.393Z,76.41
2022-11-09T17:54:22.511Z,76.22
2022-11-09T17:57:13.561Z,75.99
2022-11-09T18:00:06.524Z,76.42
2022-11-09T18:02:59.186Z,76.26
2022-11-09T18:06:50.018Z,76.03
2022-11-09T18:09:42.668Z,76.35
2022-11-09T18:12:35.209Z,75.99
2022-11-09T18:15:26.615Z,76.28
2022-11-09T18:18:18.612Z,76.56
2022-11-09T18:21:14.587Z,76.58
2022-11-09T18:34:28.668Z,75.70
2022-11-09T18:37:20.670Z,76.43
2022-11-09T18:40:16.680Z,76.82
2022-11-09T18:43:08.879Z,76.51
2022-11-09T18:46:04.173Z,76.71
2022-11-09T18:48:55.409Z,76.48
2022-11-09T18:51:47.331Z,75.97
2022-11-09T18:54:38.450Z,76.10
2022-11-09T18:57:29.665Z,76.63
2022-11-09T19:00:23.575Z,76.46
2022-11-09T19:03:18.033Z,76.31
2022-11-09T19:06:15.270Z,76.20
2022-11-09T19:09:25.553Z,75.87
2022-11-09T19:12:16.722Z,76.29
2022-11-09T19:15:10.743Z,75.95
2022-11-09T19:18:01.269Z,75.99
2022-11-09T19:20:52.474Z,75.52
2022-11-09T19:23:44.277Z,75.70
2022-11-09T19:26:39.228Z,75.71
2022-11-09T19:29:29.456Z,76.05
2022-11-09T19:32:20.605Z,75.83
2022-11-09T19:35:12.607Z,75.41
2022-11-09T19:38:06.479Z,75.61
2022-11-09T19:40:58.525Z,75.79
2022-11-09T19:43:54.889Z,75.70
2022-11-09T19:46:46.774Z,75.52
2022-11-09T19:49:37.546Z,75.69
2022-11-09T19:52:28.809Z,75.63
2022-11-09T19:55:20.671Z,75.73
2022-11-09T19:58:11.402Z,76.11
2022-11-09T20:01:07.602Z,76.02
2022-11-09T20:04:00.440Z,76.17
2022-11-09T20:06:51.369Z,76.27
2022-11-09T20:09:42.988Z,76.26
2022-11-09T20:12:51.216Z,75.99
2022-11-09T20:15:42.549Z,76.58
2022-11-09T20:18:40.331Z,76.27
2022-11-09T20:21:31.675Z,75.99
2022-11-09T20:24:22.331Z,75.85
2022-11-09T20:27:14.689Z,75.64
2022-11-09T20:30:08.271Z,75.55
2022-11-09T20:32:59.778Z,75.31
2022-11-09T20:35:55.939Z,75.23
2022-11-09T20:38:49.459Z,75.16
2022-11-09T20:41:41.983Z,75.07
2022-11-09T20:44:33.126Z,74.86
2022-11-09T20:47:49.078Z,74.81
2022-11-09T20:50:36.874Z,74.71
2022-11-09T20:53:27.901Z,75.09
2022-11-09T20:56:21.957Z,75.05
2022-11-09T20:59:13.328Z,74.92
2022-11-09T21:02:04.961Z,74.96
2022-11-09T21:04:56.449Z,75.12
2022-11-09T21:07:48.000Z,75.34
2022-11-09T21:10:39.815Z,75.14
2022-11-09T21:13:31.952Z,75.17
2022-11-09T21:16:25.027Z,75.07
2022-11-09T21:19:16.716Z,74.98
2022-11-09T21:22:08.120Z,75.20
2022-11-09T21:25:17.293Z,75.14
2022-11-09T21:28:35.283Z,75.12
2022-11-09T21:31:26.259Z,75.21
2022-11-09T21:34:17.827Z,75.16
2022-11-09T21:37:10.024Z,75.07
2022-11-09T21:40:03.150Z,74.86
2022-11-09T21:42:56.321Z,74.92
2022-11-09T21:45:55.125Z,75.13
2022-11-09T21:48:52.963Z,74.96
2022-11-09T21:51:44.721Z,75.39
2022-11-09T21:54:36.822Z,75.43
2022-11-09T21:57:30.227Z,75.59
2022-11-09T22:00:21.832Z,75.90
2022-11-09T22:03:14.368Z,76.52
2022-11-09T22:06:05.815Z,77.02
2022-11-09T22:08:57.612Z,77.37
2022-11-09T22:12:06.160Z,76.96
2022-11-09T22:15:15.042Z,76.52
2022-11-09T22:18:06.722Z,76.97
2022-11-09T22:20:58.872Z,77.03
2022-11-09T22:23:50.911Z,76.95
2022-11-09T22:26:42.917Z,76.76
2022-11-09T22:29:34.111Z,76.91
2022-11-09T22:32:25.614Z,77.20
2022-11-09T22:35:19.574Z,77.96
2022-11-09T22:38:10.783Z,78.65
2022-11-09T22:41:05.538Z,78.43
2022-11-09T22:43:57.803Z,78.45
2022-11-09T22:46:48.912Z,78.48
2022-11-09T22:49:39.967Z,78.16
2022-11-09T22:52:31.040Z,77.42
2022-11-09T22:55:21.654Z,77.34
2022-11-09T22:58:12.605Z,77.12
2022-11-09T23:01:14.472Z,77.50
2022-11-09T23:04:05.425Z,77.49
2022-11-09T23:06:57.782Z,77.72
2022-11-09T23:09:48.376Z,78.14
2022-11-09T23:12:39.367Z,78.03
2022-11-09T23:15:30.736Z,78.28
2022-11-09T23:18:39.168Z,78.58
2022-11-09T23:21:33.002Z,78.68
2022-11-09T23:24:38.389Z,78.48
2022-11-09T23:27:33.093Z,79.09
2022-11-09T23:30:25.712Z,79.20
2022-11-09T23:33:16.785Z,79.04
2022-11-09T23:36:12.943Z,78.67
2022-11-09T23:39:04.161Z,79.02
2022-11-09T23:41:55.612Z,78.82
2022-11-09T23:44:46.942Z,78.95
2022-11-09T23:47:37.879Z,79.21
2022-11-09T23:50:30.956Z,79.32
2022-11-09T23:53:22.142Z,79.39
2022-11-09T23:56:14.095Z,79.94
2022-11-09T23:59:04.828Z,79.87
